Terminal Aerodrome Forecast
Issued by NWS

Home | Current Version | Previous Version | Text Only | Print | Product List | Glossary On
Versions: 1 2 3 4 5 6 7 8 9 10 11 12 13 14 15 16 17 18
000
FTUS41 KCAR 281257 AAA
TAFFVE
TAF AMD
KFVE 281257Z 2813/2912 16008KT 1SM BR VCSH OVC004
      TEMPO 2813/2815 3/4SM -SN BR OVC002
     FM281500 24010KT P6SM VCSH OVC008
     FM281800 27012G20KT P6SM OVC020
     FM290000 30010G18KT P6SM BKN035
     FM290900 27010KT P6SM VCSH OVC025=

USA.gov is the U.S. government's official web portal to all federal, state and local government web resources and services.